Bear Lake, Michigan
Current Conditions -  °F | °C
As of 9:35 AM on Friday 31 Oct 2014 (Local Time) from KMBL Reporting Station
Overcast Overcast  
Wind Chill: 25°   Ceiling: 1500
Heat Index: 36°   Visibility: 10mi
Dew Point: 30°   Wind: 17mph
Humidity: 81%   Direction: 10°N
Pressure: 30.06"   Gusts: 25mph
Location:  44.42°N, 86.15°W
Report Text: KMBL 311335Z AUTO 01015G22KT 10SM BKN015 OVC020 02/M01 A3006 RMK AO1
Loading
Personal Weather Stations






























Interactive Weather Map
Tropical Storm Tracking
New forecast layout! Learn more

10-Day Weather Forecast

Advertisements
Track Severe Weather on mobile